Taiwan Taoyuan International Airport
RCTP : now visible

Airfield :











YOU CAN JOIN US ON...

 
LOGIN :

Register | Disclaimer

   EN    FR    IT 

 









Legend :    VFR   Marginal VFR   IFR   Intensive IFR   Very Intensive IFR
Visi :
Ceiling :
>= 8 km
>= 3000ft
5 to 8 km
1000 to 3000 ft
1500m to 5 km
500 to 1000 ft
800 to 1500m
200 to 500 ft
< 800m
< 200 ft
Symbols :   Thunderstorms  Fog  Heavy snow  Heavy precipitations  Wind > 20 kt







- Airport Elevation : 106 ft
- IATA code : TPE


RCTP - Taiwan Taoyuan International

CURRENT METAR :
  • 250730Z 32006KT 9999 VCSH FEW012 FEW015CB SCT045 BKN180 29/24 Q1010 NOSIG RMK CB S A2984

EXPIRED METARs :
  • 250700Z 33008KT 9999 FEW012 FEW015CB SCT150 31/25 Q1010 NOSIG RMK CB S A2984
  • 250630Z 32008KT 9999 FEW012 FEW015CB SCT150 31/25 Q1010 NOSIG RMK CB S A2984
  • 250600Z 33007KT 9999 FEW012 FEW015CB SCT150 31/25 Q1010 NOSIG RMK CB S A2984
  • 250530Z 33007KT 300V360 9999 FEW020 BKN150 32/25 Q1010 NOSIG RMK A2985
  • 250500Z 32007KT 9999 FEW020 BKN150 32/24 Q1011 NOSIG RMK A2986

TAF TAF RCTP
Valid from the 25 at 06:00 until the 26 at 12:00 UTC


250500Z 2506/2612 33010KT 9999 FEW015 BKN035
BECMG 2508/2510 12005KT
TEMPO 2510/2516 16010KT
TEMPO 2516/2522 18005KT
TEMPO 2603/2609 34010KT
RCAA FIR / Asia



MET'MAP, your aeronautical weather chart ! - Copyright ORBIFLY December 2007 - Disclaimer

ORBIFLY MET'MAP TEAM :

Programming & Development : Alexandra Zaïnal
Concept & Development : Baudouin d'Aumeries
Co-Development & Prog : Marc-Olivier Méhu
Technical & hardware support : Manuel Goepfert

Contact : metmap@orbifly.com




SOURCES & CREDITS :

   NOAA       Earth
Advisory